createdAt,value
2017-07-26T00:01:14.952Z,13.70
2017-07-26T00:03:42.564Z,15.37
2017-07-26T00:06:10.171Z,14.57
2017-07-26T00:08:37.873Z,12.73
2017-07-26T00:11:05.530Z,13.47
2017-07-26T00:13:33.150Z,13.23
2017-07-26T00:16:00.821Z,13.27
2017-07-26T00:18:28.456Z,12.13
2017-07-26T00:20:56.095Z,12.93
2017-07-26T00:23:23.774Z,13.00
2017-07-26T00:25:51.389Z,13.80
2017-07-26T00:28:19.074Z,13.10
2017-07-26T00:30:46.744Z,14.87
2017-07-26T00:33:14.359Z,13.00
2017-07-26T00:35:41.985Z,15.00
2017-07-26T00:38:09.678Z,13.97
2017-07-26T00:40:37.330Z,12.77
2017-07-26T00:43:04.953Z,16.50
2017-07-26T00:45:32.617Z,14.50
2017-07-26T00:48:00.237Z,15.77
2017-07-26T00:50:27.860Z,15.80
2017-07-26T00:52:55.530Z,14.43
2017-07-26T00:55:23.153Z,13.20
2017-07-26T00:57:50.777Z,13.87
2017-07-26T01:00:18.461Z,13.60
2017-07-26T01:02:46.073Z,12.83
2017-07-26T01:05:13.683Z,13.63
2017-07-26T01:07:41.373Z,12.50
2017-07-26T01:10:09.007Z,15.33
2017-07-26T01:12:36.641Z,15.63
2017-07-26T01:15:04.327Z,16.37
2017-07-26T01:17:31.963Z,15.87
2017-07-26T01:19:59.582Z,13.27
2017-07-26T01:22:27.459Z,16.40
2017-07-26T01:24:55.778Z,14.30
2017-07-26T01:27:23.454Z,14.50
2017-07-26T01:29:51.157Z,13.47
2017-07-26T01:32:18.796Z,13.93
2017-07-26T01:34:46.430Z,12.80
2017-07-26T01:37:14.111Z,13.87
2017-07-26T01:39:41.750Z,15.30
2017-07-26T01:42:09.369Z,13.00
2017-07-26T01:44:37.053Z,14.30
2017-07-26T01:47:10.120Z,13.43
2017-07-26T01:49:37.821Z,10.87
2017-07-26T01:52:05.450Z,11.90
2017-07-26T01:54:33.055Z,10.10
2017-07-26T01:57:00.735Z,11.07
2017-07-26T01:59:28.367Z,12.40
2017-07-26T02:01:55.984Z,11.70
2017-07-26T02:04:23.692Z,12.47
2017-07-26T02:06:51.311Z,15.13
2017-07-26T02:09:18.957Z,15.73
2017-07-26T02:11:46.643Z,16.27
2017-07-26T02:14:14.255Z,15.20
2017-07-26T02:16:41.879Z,14.50
2017-07-26T02:19:09.577Z,17.13
2017-07-26T02:21:37.197Z,15.50
2017-07-26T02:24:04.823Z,15.07
2017-07-26T02:26:32.501Z,15.47
2017-07-26T02:29:00.136Z,12.70
2017-07-26T02:31:27.754Z,13.73
2017-07-26T02:33:55.443Z,12.00
2017-07-26T02:36:23.072Z,13.90
2017-07-26T02:38:50.706Z,15.17
2017-07-26T02:41:18.390Z,17.47
2017-07-26T02:43:46.009Z,15.33
2017-07-26T02:46:13.652Z,15.87
2017-07-26T02:48:41.315Z,13.30
2017-07-26T02:51:08.950Z,13.63
2017-07-26T02:53:36.584Z,16.27
2017-07-26T02:56:04.276Z,15.17
2017-07-26T02:58:31.887Z,15.97
2017-07-26T03:00:59.505Z,18.27
2017-07-26T03:03:27.181Z,19.60
2017-07-26T03:05:54.813Z,21.90
2017-07-26T03:08:22.437Z,35.50
2017-07-26T03:10:50.259Z,13.80
2017-07-26T03:13:17.866Z,16.63
2017-07-26T03:15:45.485Z,12.37
2017-07-26T03:18:13.171Z,13.20
2017-07-26T03:20:40.793Z,13.17
2017-07-26T03:23:08.420Z,10.87
2017-07-26T03:25:36.102Z,11.00
2017-07-26T03:28:03.742Z,10.43
2017-07-26T03:30:31.371Z,11.57
2017-07-26T03:32:59.057Z,11.63
2017-07-26T03:35:26.673Z,10.10
2017-07-26T03:37:54.339Z,10.23
2017-07-26T03:40:22.016Z,10.93
2017-07-26T03:42:49.625Z,10.90
2017-07-26T03:45:17.236Z,11.70
2017-07-26T03:47:44.915Z,11.07
2017-07-26T03:50:12.537Z,9.87
2017-07-26T03:52:40.156Z,10.13
2017-07-26T03:55:07.867Z,9.27
2017-07-26T03:57:35.522Z,10.37
2017-07-26T04:00:03.172Z,8.43
2017-07-26T04:02:30.860Z,10.10
2017-07-26T04:04:58.479Z,10.27
2017-07-26T04:07:26.100Z,9.20
2017-07-26T04:09:53.945Z,9.07
2017-07-26T04:12:21.567Z,9.50
2017-07-26T04:14:49.213Z,8.07
2017-07-26T04:17:16.899Z,8.27
2017-07-26T04:19:44.667Z,8.20
2017-07-26T04:22:12.291Z,9.53
2017-07-26T04:24:39.970Z,9.53
2017-07-26T04:27:07.601Z,9.83
2017-07-26T04:29:35.228Z,8.70
2017-07-26T04:32:02.911Z,8.37
2017-07-26T04:34:30.535Z,8.77
2017-07-26T04:36:58.152Z,7.97
2017-07-26T04:39:25.850Z,8.27
2017-07-26T04:41:53.499Z,8.70
2017-07-26T04:44:21.124Z,9.13
2017-07-26T04:46:48.824Z,10.03
2017-07-26T04:49:16.443Z,9.30
2017-07-26T04:51:44.067Z,8.77
2017-07-26T04:54:11.748Z,8.00
2017-07-26T04:56:39.373Z,7.80
2017-07-26T04:59:06.987Z,6.83
2017-07-26T05:01:34.660Z,7.23
2017-07-26T05:04:02.272Z,7.80
2017-07-26T05:06:29.890Z,8.00
2017-07-26T05:08:57.554Z,7.00
2017-07-26T05:11:25.233Z,6.83
2017-07-26T05:13:52.837Z,6.00
2017-07-26T05:16:20.523Z,6.33
2017-07-26T05:18:48.135Z,6.00
2017-07-26T05:21:15.746Z,5.17
2017-07-26T05:23:43.427Z,5.40
2017-07-26T05:26:11.042Z,4.83
2017-07-26T05:28:38.635Z,4.80
2017-07-26T05:31:06.312Z,5.00
2017-07-26T05:33:33.930Z,4.77
2017-07-26T05:36:01.535Z,5.10
2017-07-26T05:38:29.243Z,7.20
2017-07-26T05:40:56.877Z,6.70
2017-07-26T05:43:24.470Z,5.13
2017-07-26T05:45:52.127Z,4.67
2017-07-26T05:48:19.742Z,4.63
2017-07-26T05:50:47.420Z,4.50
2017-07-26T05:53:15.096Z,4.37
2017-07-26T05:55:42.720Z,4.63
2017-07-26T05:58:10.337Z,4.63
2017-07-26T06:00:37.981Z,4.90
2017-07-26T06:03:05.595Z,24.77
2017-07-26T06:05:33.217Z,4.47
2017-07-26T06:08:00.881Z,4.60
2017-07-26T06:10:28.500Z,4.50
2017-07-26T06:12:56.130Z,5.30
2017-07-26T06:15:23.817Z,5.30
2017-07-26T06:17:51.431Z,4.23
2017-07-26T06:20:19.053Z,4.50
2017-07-26T06:22:46.751Z,4.90
2017-07-26T06:25:14.345Z,4.10
2017-07-26T06:27:41.975Z,4.90
2017-07-26T06:30:09.640Z,4.43
2017-07-26T06:32:37.441Z,4.80
2017-07-26T06:35:05.058Z,4.83
2017-07-26T06:37:32.850Z,4.43
2017-07-26T06:40:00.456Z,4.80
2017-07-26T06:42:28.105Z,3.90
2017-07-26T06:44:55.754Z,3.40
2017-07-26T06:47:23.376Z,4.00
2017-07-26T06:49:51.037Z,4.50
2017-07-26T06:52:18.695Z,3.67
2017-07-26T06:54:46.310Z,4.50
2017-07-26T06:57:13.932Z,3.43
2017-07-26T06:59:41.607Z,4.53
2017-07-26T07:02:09.224Z,3.67
2017-07-26T07:04:36.833Z,3.57
2017-07-26T07:07:04.523Z,3.40
2017-07-26T07:09:32.151Z,2.80
2017-07-26T07:11:59.762Z,4.17
2017-07-26T07:14:27.477Z,3.53
2017-07-26T07:16:55.096Z,2.60
2017-07-26T07:19:22.753Z,2.97
2017-07-26T07:21:50.424Z,2.80
2017-07-26T07:24:18.024Z,2.67
2017-07-26T07:26:45.640Z,3.57
2017-07-26T07:29:13.317Z,3.23
2017-07-26T07:31:40.919Z,2.90
2017-07-26T07:34:08.526Z,2.83
2017-07-26T07:36:36.262Z,3.10
2017-07-26T07:39:03.964Z,3.17
2017-07-26T07:41:31.642Z,3.00
2017-07-26T07:43:59.459Z,4.63
2017-07-26T07:46:27.090Z,5.93
2017-07-26T07:48:54.686Z,5.10
2017-07-26T07:51:22.364Z,5.90
2017-07-26T07:53:49.971Z,5.73
2017-07-26T07:56:17.587Z,4.00
2017-07-26T07:58:45.253Z,5.03
2017-07-26T08:01:12.858Z,5.10
2017-07-26T08:03:40.469Z,4.53
2017-07-26T08:06:08.140Z,3.73
2017-07-26T08:08:35.735Z,3.63
2017-07-26T08:11:03.461Z,3.40
2017-07-26T08:13:31.136Z,3.47
2017-07-26T08:15:58.748Z,3.63
2017-07-26T08:18:26.349Z,4.80
2017-07-26T08:20:54.018Z,6.70
2017-07-26T08:23:21.638Z,4.97
2017-07-26T08:25:49.249Z,6.03
2017-07-26T08:28:16.936Z,4.47
2017-07-26T08:30:44.549Z,3.80
2017-07-26T08:33:12.157Z,2.83
2017-07-26T08:35:40.019Z,3.70
2017-07-26T08:38:07.632Z,3.67
2017-07-26T08:40:35.251Z,5.57
2017-07-26T08:43:02.927Z,3.97
2017-07-26T08:45:30.531Z,3.70
2017-07-26T08:47:58.133Z,3.13
2017-07-26T08:50:25.805Z,3.77
2017-07-26T08:52:53.421Z,4.53
2017-07-26T08:55:21.032Z,3.90
2017-07-26T08:57:48.710Z,3.80
2017-07-26T09:00:16.317Z,4.30
2017-07-26T09:02:43.997Z,4.40
2017-07-26T09:05:11.668Z,3.60
2017-07-26T09:07:39.289Z,3.83
2017-07-26T09:10:06.952Z,4.10
2017-07-26T09:12:34.609Z,4.20
2017-07-26T09:15:02.209Z,4.27
2017-07-26T09:17:29.822Z,4.77
2017-07-26T09:19:57.494Z,4.80
2017-07-26T09:22:25.085Z,4.03
2017-07-26T09:24:52.699Z,5.00
2017-07-26T09:27:20.378Z,4.80
2017-07-26T09:29:47.987Z,5.77
2017-07-26T09:32:15.604Z,4.77
2017-07-26T09:34:43.274Z,5.00
2017-07-26T09:37:10.866Z,4.37
2017-07-26T09:39:38.476Z,5.10
2017-07-26T09:42:06.123Z,4.72
2017-07-26T09:44:34.031Z,5.70
2017-07-26T09:47:01.648Z,6.05
2017-07-26T09:49:29.337Z,6.00
2017-07-26T09:51:56.978Z,5.00
2017-07-26T09:54:24.592Z,5.67
2017-07-26T09:56:52.265Z,5.23
2017-07-26T09:59:19.889Z,6.00
2017-07-26T10:01:47.506Z,4.33
2017-07-26T10:04:15.172Z,5.40
2017-07-26T10:06:42.786Z,4.77
2017-07-26T10:09:10.403Z,6.17
2017-07-26T10:11:38.064Z,6.73
2017-07-26T10:14:05.686Z,6.70
2017-07-26T10:16:33.325Z,10.97
2017-07-26T10:19:01.160Z,5.47
2017-07-26T10:21:28.772Z,5.50
2017-07-26T10:23:56.375Z,5.53
2017-07-26T10:26:24.022Z,5.50
2017-07-26T10:28:51.655Z,8.15
2017-07-26T10:31:19.277Z,5.70
2017-07-26T10:33:46.928Z,6.60
2017-07-26T10:36:14.538Z,6.10
2017-07-26T10:38:42.141Z,6.07
2017-07-26T10:41:09.823Z,5.47
2017-07-26T10:43:37.451Z,5.45
2017-07-26T10:46:05.125Z,5.00
2017-07-26T10:48:32.816Z,4.10
2017-07-26T10:51:00.415Z,3.87
2017-07-26T10:53:28.101Z,4.62
2017-07-26T10:55:55.783Z,5.33
2017-07-26T10:58:23.381Z,4.03
2017-07-26T11:00:50.993Z,3.47
2017-07-26T11:03:18.657Z,4.95
2017-07-26T11:05:46.289Z,4.27
2017-07-26T11:08:13.889Z,4.25
2017-07-26T11:10:41.532Z,4.43
2017-07-26T11:13:09.146Z,6.67
2017-07-26T11:15:36.750Z,4.90
2017-07-26T11:18:04.488Z,4.70
2017-07-26T11:20:32.166Z,4.90
2017-07-26T11:22:59.783Z,4.33
2017-07-26T11:25:27.400Z,4.75
2017-07-26T11:27:55.068Z,4.10
2017-07-26T11:30:22.692Z,4.10
2017-07-26T11:32:50.314Z,4.83
2017-07-26T11:35:18.158Z,3.90
2017-07-26T11:37:45.979Z,3.83
2017-07-26T11:40:13.601Z,4.27
2017-07-26T11:42:41.276Z,3.87
2017-07-26T11:45:08.893Z,5.00
2017-07-26T11:47:36.556Z,4.57
2017-07-26T11:50:04.225Z,3.47
2017-07-26T11:52:31.847Z,3.97
2017-07-26T11:54:59.456Z,3.27
2017-07-26T11:57:27.132Z,4.87
2017-07-26T11:59:54.749Z,4.13
2017-07-26T12:02:22.396Z,4.57
2017-07-26T12:04:50.225Z,4.23
2017-07-26T12:07:17.824Z,4.87
2017-07-26T12:09:45.472Z,3.62
2017-07-26T12:12:13.136Z,4.55
2017-07-26T12:14:40.761Z,5.87
2017-07-26T12:17:08.387Z,4.12
2017-07-26T12:19:36.053Z,4.00
2017-07-26T12:22:03.648Z,4.18
2017-07-26T12:24:31.249Z,3.65
2017-07-26T12:26:58.915Z,4.30
2017-07-26T12:29:26.520Z,3.42
2017-07-26T12:31:54.156Z,4.45
2017-07-26T12:34:21.800Z,4.37
2017-07-26T12:36:49.456Z,3.90
2017-07-26T12:39:17.075Z,4.12
2017-07-26T12:41:44.838Z,4.68
2017-07-26T12:44:12.478Z,3.20
2017-07-26T12:46:40.128Z,3.70
2017-07-26T12:49:07.841Z,4.33
2017-07-26T12:51:35.525Z,4.43
2017-07-26T12:54:04.773Z,3.93
2017-07-26T12:56:32.812Z,4.50
2017-07-26T12:59:00.534Z,5.10
2017-07-26T13:01:28.526Z,5.03
2017-07-26T13:03:56.260Z,4.93
2017-07-26T13:06:23.873Z,5.03
2017-07-26T13:08:51.493Z,5.50
2017-07-26T13:11:19.236Z,5.07
2017-07-26T13:13:46.877Z,4.90
2017-07-26T13:16:14.518Z,4.60
2017-07-26T13:18:42.249Z,6.20
2017-07-26T13:21:09.833Z,6.30
2017-07-26T13:23:37.448Z,5.57
2017-07-26T13:26:05.165Z,4.87
2017-07-26T13:28:32.790Z,5.67
2017-07-26T13:31:00.454Z,5.93
2017-07-26T13:33:28.137Z,5.00
2017-07-26T13:35:55.753Z,6.67
2017-07-26T13:38:23.383Z,6.50
2017-07-26T13:40:51.039Z,7.67
2017-07-26T13:43:18.664Z,6.77
2017-07-26T13:45:46.272Z,8.20
2017-07-26T13:48:13.937Z,9.70
2017-07-26T13:50:41.541Z,9.07
2017-07-26T13:53:09.203Z,8.40
2017-07-26T13:55:36.897Z,9.33
2017-07-26T13:58:04.498Z,10.40
2017-07-26T14:00:32.102Z,9.87
2017-07-26T14:02:59.764Z,12.30
2017-07-26T14:05:27.373Z,11.00
2017-07-26T14:07:54.975Z,10.90
2017-07-26T14:10:22.638Z,10.50
2017-07-26T14:12:50.267Z,9.17
2017-07-26T14:15:17.899Z,8.53
2017-07-26T14:17:45.555Z,8.80
2017-07-26T14:20:13.172Z,8.50
2017-07-26T14:22:40.795Z,8.73
2017-07-26T14:25:08.593Z,12.40
2017-07-26T14:27:36.228Z,10.30
2017-07-26T14:30:03.856Z,12.73
2017-07-26T14:32:31.544Z,11.47
2017-07-26T14:35:03.906Z,13.23
2017-07-26T14:37:31.524Z,11.17
2017-07-26T14:39:59.144Z,15.43
2017-07-26T14:42:26.753Z,13.63
2017-07-26T14:44:54.436Z,15.90
2017-07-26T14:47:22.097Z,15.40
2017-07-26T14:49:49.706Z,14.37
2017-07-26T14:52:17.629Z,12.93
2017-07-26T14:54:45.248Z,11.53
2017-07-26T14:57:12.862Z,11.80
2017-07-26T14:59:40.572Z,13.80
2017-07-26T15:02:08.184Z,15.40
2017-07-26T15:04:35.776Z,15.30
2017-07-26T15:07:03.608Z,17.60
2017-07-26T15:09:31.239Z,14.80
2017-07-26T15:11:58.843Z,16.30
2017-07-26T15:14:26.510Z,18.10
2017-07-26T15:16:54.121Z,12.63
2017-07-26T15:19:21.715Z,9.23
2017-07-26T15:21:49.384Z,8.17
2017-07-26T15:24:16.991Z,7.37
2017-07-26T15:26:44.592Z,6.63
2017-07-26T15:29:12.353Z,8.67
2017-07-26T15:31:39.965Z,7.33
2017-07-26T15:34:07.753Z,8.37
2017-07-26T15:36:35.396Z,7.77
2017-07-26T15:39:03.000Z,9.53
2017-07-26T15:41:30.728Z,9.57
2017-07-26T15:43:58.541Z,8.90
2017-07-26T15:46:26.168Z,8.50
2017-07-26T15:48:53.780Z,7.17
2017-07-26T15:51:21.500Z,8.70
2017-07-26T15:53:49.104Z,8.20
2017-07-26T15:56:16.761Z,8.27
2017-07-26T15:58:44.424Z,8.60
2017-07-26T16:01:12.023Z,7.63
2017-07-26T16:03:39.612Z,6.97
2017-07-26T16:06:07.670Z,6.40
2017-07-26T16:08:35.366Z,5.70
2017-07-26T16:11:03.060Z,6.77
2017-07-26T16:13:30.706Z,6.90
2017-07-26T16:15:58.329Z,6.23
2017-07-26T16:18:25.935Z,6.97
2017-07-26T16:20:53.582Z,6.40
2017-07-26T16:23:21.175Z,8.40
2017-07-26T16:25:48.827Z,7.33
2017-07-26T16:28:16.493Z,8.20
2017-07-26T16:30:44.101Z,8.00
2017-07-26T16:33:11.711Z,8.40
2017-07-26T16:35:39.382Z,9.07
2017-07-26T16:38:07.000Z,8.67
2017-07-26T16:40:34.707Z,9.87
2017-07-26T16:43:02.359Z,9.73
2017-07-26T16:45:29.976Z,10.17
2017-07-26T16:47:57.604Z,11.63
2017-07-26T16:50:25.260Z,8.83
2017-07-26T16:52:52.877Z,8.37
2017-07-26T16:55:20.478Z,7.90
2017-07-26T16:57:48.172Z,9.00
2017-07-26T17:00:15.766Z,8.13
2017-07-26T17:02:43.366Z,7.40
2017-07-26T17:05:11.232Z,8.53
2017-07-26T17:07:38.831Z,7.40
2017-07-26T17:10:06.416Z,8.30
2017-07-26T17:12:34.174Z,8.43
2017-07-26T17:15:01.838Z,9.30
2017-07-26T17:17:29.495Z,8.60
2017-07-26T17:19:57.367Z,9.23
2017-07-26T17:22:25.023Z,13.30
2017-07-26T17:24:52.705Z,9.40
2017-07-26T17:27:20.585Z,9.20
2017-07-26T17:29:48.403Z,10.23
2017-07-26T17:32:16.087Z,8.80
2017-07-26T17:34:43.958Z,9.47
2017-07-26T17:37:11.610Z,8.93
2017-07-26T17:39:39.472Z,9.10
2017-07-26T17:42:07.138Z,10.33
2017-07-26T17:44:34.804Z,9.60
2017-07-26T17:47:02.495Z,8.43
2017-07-26T17:49:30.157Z,9.87
2017-07-26T17:51:57.979Z,10.20
2017-07-26T17:54:25.843Z,9.27
2017-07-26T17:56:53.931Z,8.13
2017-07-26T17:59:21.901Z,9.60
2017-07-26T18:01:49.849Z,9.27
2017-07-26T18:04:17.740Z,11.23
2017-07-26T18:06:45.580Z,11.70
2017-07-26T18:09:13.326Z,10.00
2017-07-26T18:11:41.139Z,10.57
2017-07-26T18:14:08.781Z,11.10
2017-07-26T18:16:36.459Z,10.47
2017-07-26T18:19:04.358Z,16.93
2017-07-26T18:21:32.202Z,8.53
2017-07-26T18:24:00.045Z,9.73
2017-07-26T18:26:27.698Z,9.87
2017-07-26T18:28:55.288Z,8.90
2017-07-26T18:31:22.892Z,15.47
2017-07-26T18:33:50.917Z,9.80
2017-07-26T18:36:18.763Z,10.17
2017-07-26T18:38:46.451Z,10.23
2017-07-26T18:41:14.305Z,10.17
2017-07-26T18:43:42.036Z,9.80
2017-07-26T18:46:10.000Z,11.90
2017-07-26T18:48:37.869Z,9.83
2017-07-26T18:51:05.684Z,8.97
2017-07-26T18:53:33.439Z,8.43
2017-07-26T18:56:01.499Z,8.90
2017-07-26T18:58:29.217Z,8.60
2017-07-26T19:00:56.880Z,11.93
2017-07-26T19:03:24.673Z,10.60
2017-07-26T19:05:52.567Z,9.37
2017-07-26T19:08:20.231Z,10.10
2017-07-26T19:10:48.301Z,11.57
2017-07-26T19:13:16.039Z,10.40
2017-07-26T19:15:43.690Z,12.53
2017-07-26T19:18:11.796Z,12.43
2017-07-26T19:20:39.466Z,13.60
2017-07-26T19:23:07.374Z,12.10
2017-07-26T19:25:35.032Z,12.50
2017-07-26T19:28:03.046Z,12.60
2017-07-26T19:30:30.936Z,14.13
2017-07-26T19:32:58.608Z,14.17
2017-07-26T19:35:26.253Z,14.97
2017-07-26T19:37:53.899Z,18.37
2017-07-26T19:40:21.778Z,16.00
2017-07-26T19:42:49.432Z,14.97
2017-07-26T19:45:17.287Z,13.87
2017-07-26T19:47:45.028Z,12.47
2017-07-26T19:50:12.842Z,13.33
2017-07-26T19:52:40.510Z,16.53
2017-07-26T19:55:08.354Z,15.20
2017-07-26T19:57:36.094Z,14.80
2017-07-26T20:00:03.885Z,17.10
2017-07-26T20:02:33.150Z,13.30
2017-07-26T20:05:01.275Z,12.77
2017-07-26T20:07:28.935Z,12.37
2017-07-26T20:09:56.641Z,13.63
2017-07-26T20:12:25.303Z,13.60
2017-07-26T20:14:54.442Z,13.03
2017-07-26T20:17:22.168Z,13.30
2017-07-26T20:19:49.779Z,13.37
2017-07-26T20:22:17.456Z,12.63
2017-07-26T20:24:45.040Z,12.90
2017-07-26T20:27:13.049Z,12.17
2017-07-26T20:29:40.727Z,13.07
2017-07-26T20:32:08.313Z,14.80
2017-07-26T20:34:35.910Z,15.53
2017-07-26T20:37:03.746Z,13.83
2017-07-26T20:39:31.352Z,14.23
2017-07-26T20:41:58.958Z,15.13
2017-07-26T20:44:26.606Z,16.23
2017-07-26T20:46:54.194Z,15.70
2017-07-26T20:49:21.789Z,15.47
2017-07-26T20:51:49.433Z,15.13
2017-07-26T20:54:17.057Z,13.20
2017-07-26T20:56:44.680Z,15.67
2017-07-26T20:59:12.698Z,14.70
2017-07-26T21:01:40.414Z,13.90
2017-07-26T21:04:08.091Z,15.97
2017-07-26T21:06:36.097Z,14.83
2017-07-26T21:09:04.579Z,13.90
2017-07-26T21:11:32.813Z,16.13
2017-07-26T21:14:01.337Z,15.37
2017-07-26T21:16:29.070Z,14.20
2017-07-26T21:18:58.262Z,15.10
2017-07-26T21:21:26.372Z,17.97
2017-07-26T21:23:54.441Z,17.60
2017-07-26T21:26:22.682Z,18.77
2017-07-26T21:28:50.794Z,18.03
2017-07-26T21:31:18.641Z,16.40
2017-07-26T21:33:46.250Z,14.93
2017-07-26T21:36:13.908Z,12.93
2017-07-26T21:38:41.642Z,14.53
2017-07-26T21:41:09.304Z,14.40
2017-07-26T21:43:36.969Z,14.93
2017-07-26T21:46:04.621Z,15.60
2017-07-26T21:48:32.290Z,19.40
2017-07-26T21:51:00.158Z,17.80
2017-07-26T21:53:27.823Z,16.60
2017-07-26T21:55:55.663Z,15.20
2017-07-26T21:58:23.329Z,18.27
2017-07-26T22:00:51.018Z,15.03
2017-07-26T22:03:18.790Z,15.30
2017-07-26T22:05:46.528Z,16.00
2017-07-26T22:08:14.551Z,16.27
2017-07-26T22:10:42.486Z,15.00
2017-07-26T22:13:10.146Z,16.53
2017-07-26T22:15:37.806Z,16.47
2017-07-26T22:18:05.517Z,15.50
2017-07-26T22:20:33.540Z,14.50
2017-07-26T22:23:01.375Z,14.97
2017-07-26T22:25:29.276Z,16.40
2017-07-26T22:27:57.214Z,16.00
2017-07-26T22:30:24.882Z,15.93
2017-07-26T22:32:52.669Z,16.90
2017-07-26T22:35:20.311Z,16.60
2017-07-26T22:37:48.178Z,20.53
2017-07-26T22:40:15.920Z,18.67
2017-07-26T22:42:43.921Z,19.90
2017-07-26T22:45:11.804Z,17.87
2017-07-26T22:47:39.550Z,15.17
2017-07-26T22:50:07.330Z,16.73
2017-07-26T22:52:34.993Z,17.30
2017-07-26T22:55:02.701Z,16.43
2017-07-26T22:57:30.688Z,17.50
2017-07-26T22:59:58.304Z,18.70
2017-07-26T23:02:25.899Z,19.90
2017-07-26T23:04:53.548Z,17.20
2017-07-26T23:07:21.221Z,17.93
2017-07-26T23:09:48.862Z,14.97
2017-07-26T23:12:16.514Z,17.90
2017-07-26T23:14:44.120Z,12.53
2017-07-26T23:17:11.731Z,13.90
2017-07-26T23:19:39.400Z,13.97
2017-07-26T23:22:06.995Z,15.23
2017-07-26T23:24:34.825Z,18.23
2017-07-26T23:27:02.642Z,17.57
2017-07-26T23:29:30.387Z,17.33
2017-07-26T23:31:58.197Z,19.27
2017-07-26T23:34:25.844Z,14.83
2017-07-26T23:36:53.438Z,16.30
2017-07-26T23:39:21.037Z,16.27
2017-07-26T23:41:48.847Z,17.30
2017-07-26T23:44:16.471Z,14.27
2017-07-26T23:46:44.092Z,17.13
2017-07-26T23:49:11.754Z,16.50
2017-07-26T23:51:39.415Z,17.80
2017-07-26T23:54:07.029Z,14.97
2017-07-26T23:56:34.877Z,15.20
2017-07-26T23:59:02.843Z,18.80
